Flight Track Log - Related Links

Times and Time Zones

All times are in EDT time to prevent confusion due to time zone crossing. See the TCF5918 flight status page for this flight to view local times or setup timezone preferences in your user account.

Time Position Orientation Groundspeed Altitude Reporting Facility
EDT Latitude Longitude Course Direction KTS MPH feet Rate Location/Type
Tue 03:30:46 PM 38.8247 -77.0186 72° East 158 182 2,000  Level Washington Center
Tue 03:31:46 PM 38.7678 -76.9908 159° South 225 259 4,500 3,429 Climbing Washington Center
Tue 03:32:52 PM 38.8000 -76.9000 66° East 263 303 9,200 3,333 Climbing Potomac TRACON
Tue 03:33:52 PM 38.8725 -76.8631 22° Northeast 311 358 11,500 2,439 Climbing Washington Center
Tue 03:34:00 PM 38.9839 -76.5141 74° East  Level FlightAware Approximate
Tue 03:34:55 PM 38.9631 -76.8000 28° Northeast 370 426 14,200  Level Washington Center
Tue 03:35:00 PM 39.0080 -76.4058 74° East  Level FlightAware Approximate
Tue 03:35:55 PM 38.9908 -76.6644 75° East 394 453 16,500  Level Washington Center
Tue 03:36:00 PM 39.0206 -76.3009 72° East  Level FlightAware Approximate
Tue 03:37:00 PM 39.0111 -76.5189 80° East 412 474 18,100  Level Washington Center
Tue 03:38:01 PM 39.0653 -76.3808 63° Northeast 435 501 19,800 1,438 Climbing Washington Center
Tue 03:39:01 PM 39.1236 -76.2378 62° Northeast 447 514 21,000 581 Climbing Washington Center
Tue 03:40:05 PM 39.1872 -76.0758 63° Northeast 463 533 21,000  Level Washington Center
Tue 03:41:07 PM 39.2472 -75.9292 62° Northeast 464 534 21,000  Level Washington Center
Tue 03:42:11 PM 39.3175 -75.7517 63° Northeast 464 534 21,000  Level Washington Center
Tue 03:43:11 PM 39.3747 -75.6053 63° Northeast 463 533 21,000  Level Washington Center
Tue 03:44:13 PM 39.4331 -75.4592 63° Northeast 460 529 21,000  Level Washington Center
Tue 03:45:17 PM 39.4894 -75.3144 63° Northeast 457 526 21,000  Level Washington Center
Tue 03:46:17 PM 39.5758 -75.2069 44° Northeast 437 503 21,000 -195 Level Washington Center
Tue 03:47:20 PM 39.6933 -75.1036 34° Northeast 432 497 20,600 -1,228 Descending Washington Center
Tue 03:48:24 PM 39.8042 -75.0650 15° North 415 478 18,400 -2,226 Descending Washington Center
Tue 03:49:24 PM 39.9194 -75.0267 14° North 396 456 16,000 -2,115 Descending Washington Center
Tue 03:50:26 PM 40.0217 -74.9869 17° North 382 440 14,100 -1,440 Descending Washington Center
Tue 03:51:29 PM 40.0606 -74.8761 65° Northeast 340 391 13,000 -1,361 Descending Washington Center
Tue 03:52:25 PM 40.0833 -74.7667 75° East 332 382 11,400 -1,500 Descending New York TRACON
Tue 03:53:25 PM 40.1167 -74.6333 72° East 369 425 10,100 -700 Descending New York TRACON
Tue 03:54:25 PM 40.1833 -74.5333 49° Northeast 371 427 10,000 -50 Descending New York TRACON
Tue 03:55:25 PM 40.2500 -74.4333 49° Northeast 372 428 10,000  Level New York TRACON
Tue 03:56:31 PM 40.3333 -74.3333 42° Northeast 373 429 10,000  Level New York TRACON
Tue 03:57:31 PM 40.4000 -74.2500 44° Northeast 319 367 10,000 -800 Level New York TRACON
Tue 03:58:31 PM 40.4500 -74.1833 45° Northeast 280 322 8,400 -1,684 Descending New York TRACON
Tue 03:59:25 PM 40.5000 -74.1167 45° Northeast 272 313 6,800 -1,895 Descending New York TRACON
Tue 04:00:25 PM 40.5667 -74.0667 30° Northeast 261 300 4,800 -1,400 Descending New York TRACON
Tue 04:01:25 PM 40.6333 -74.0500 11° North 258 297 4,000 -400 Descending New York TRACON
Tue 04:02:25 PM 40.7000 -74.0333 11° North 260 299 4,000  Level New York TRACON
Tue 04:03:25 PM 40.7667 -74.0000 21° North 263 303 4,000 -400 Level New York TRACON
Tue 04:04:25 PM 40.8333 -73.9667 21° North 259 298 3,200 -450 Descending New York TRACON
Tue 04:05:25 PM 40.9000 -73.9167 30° Northeast 220 253 3,100 -100 Descending New York TRACON
Tue 04:06:25 PM 40.9333 -73.8667 49° Northeast 192 221 3,000 -524 Descending New York TRACON
Tue 04:07:31 PM 40.9167 -73.7833 105° East 186 214 2,000 -550 Descending New York TRACON
Tue 04:08:25 PM 40.8667 -73.8000 194° South 185 213 1,900 -474 Descending New York TRACON
Tue 04:09:25 PM 40.8333 -73.8333 217° Southwest 159 183 1,100 -750 Descending New York TRACON
Tue 04:10:25 PM 40.8000 -73.8500 201° Southwest 127 146 400 -700 Descending New York TRACON

Login

Don't have an account? Register now (free) for customized features, flight alerts, and more!